03:41
Airports
History
Links
Donate
Help keep this website running!
PayPal
Bitcoin
This page is community maintained. The information is intended for PC simulator navigation or reference.
Always use approved charts for navigation.
EHWO
WoensdrechtEdited 26-Jun-2011
Woensdrecht (EHWO)
Hoogerheide, Noord-Brabant, Netherlands (4631)
(C)
Lat/Lng:51° 26' 56.4" N / 4° 20' 31.5" E
51.449 / 4.342084
Elevation:63'ft / 19mMSL
ID / ICAO:EHWO
Runways:1
Longest:07-25
Asphalt 2,430m / 7,973ft
Controlled:Yes
(Edited 2011-06-26) [ Sign in to Edit ]
METAR03:25 GMT 2017-12-13
Altimeter: 29.74
Visibility: 6.2 statute miles
Wind: 10 knots (from 190°)
Temp: 3°c / 37°f
Humidity: 86.7%

METAR: EHWO 130325Z AUTO 19010KT 140V230 9999 BKN069 BKN076 OVC085 03/01 Q1007 BLU

(Powered by phpweather)
Airport Radio Frequencies
Tower: 118.5
Approach: 123.57, 123.57
Nearby VORs <50NM
Nearby NDBs
Runway 07 / 25
Dimensions:2430.1 x 45.1m 7973' x 148'ft
Surface:Asphalt
Edge Lights:High intensity
Runway 07 [A]Runway 25 [B]
Heading:069°TH 249°TH
Lat:
Lng:
51° 26' 42.6"N
4° 19' 32.4"E
51° 27' 10.2"N
4° 21' 30.6"E
ALS:MALS
User Notes and Comments
51° 26' 56.4" N / 4° 20' 31.5" E
Distance To
Airport ID:
Nearby Airports
4 EBHN 9.5 NM
EBHN SSE 166°
(C) Brasschaat 10.2 NM
EBBT SE 137°
(C) Seppe 11.7 NM
EHSE NE 51°
(C) Antwerp Deurne 18.6 NM
EBAW ( WX ) SSE 163°
(C) Zoersel 21.9 NM
EBZR SE 125°
(C) Midden Zeeland 26.5 NM
EHMZ W 279°
(C) Gilze Rijen 26.6 NM
EHGR ( WX ) ENE 72°
VFR Chart
Flight Planning at SkyVector.com